createdAt,value
2022-08-17T00:00:43.569Z,20.07
2022-08-17T00:03:14.590Z,20.07
2022-08-17T00:05:52.271Z,19.98
2022-08-17T00:08:22.484Z,19.90
2022-08-17T00:10:50.076Z,19.91
2022-08-17T00:13:29.635Z,20.04
2022-08-17T00:16:02.394Z,20.07
2022-08-17T00:19:06.565Z,20.07
2022-08-17T00:21:25.175Z,20.10
2022-08-17T00:23:54.497Z,20.13
2022-08-17T00:26:43.999Z,20.17
2022-08-17T00:29:09.275Z,20.23
2022-08-17T00:31:37.279Z,20.24
2022-08-17T00:34:08.803Z,20.27
2022-08-17T00:36:38.769Z,20.32
2022-08-17T00:39:05.617Z,20.27
2022-08-17T00:41:40.772Z,20.23
2022-08-17T00:44:09.769Z,20.21
2022-08-17T00:46:42.131Z,20.26
2022-08-17T00:49:11.914Z,20.13
2022-08-17T00:51:44.273Z,20.17
2022-08-17T00:54:33.515Z,20.04
2022-08-17T00:57:17.090Z,19.96
2022-08-17T00:59:47.218Z,19.97
2022-08-17T01:02:29.985Z,20.03
2022-08-17T01:05:01.411Z,20.35
2022-08-17T01:07:30.902Z,20.74
2022-08-17T01:09:58.683Z,20.99
2022-08-17T01:12:25.277Z,21.23
2022-08-17T01:14:51.894Z,21.58
2022-08-17T01:17:20.801Z,21.67
2022-08-17T01:19:47.375Z,21.91
2022-08-17T01:22:20.061Z,21.86
2022-08-17T01:24:59.065Z,21.93
2022-08-17T01:27:26.740Z,22.02
2022-08-17T01:29:58.679Z,22.13
2022-08-17T01:32:30.468Z,22.14
2022-08-17T01:34:58.306Z,22.13
2022-08-17T01:37:35.709Z,22.15
2022-08-17T01:40:16.054Z,22.11
2022-08-17T01:43:01.449Z,21.95
2022-08-17T01:45:33.690Z,21.86
2022-08-17T01:48:03.104Z,21.82
2022-08-17T01:50:34.884Z,21.75
2022-08-17T01:53:11.509Z,21.77
2022-08-17T01:55:51.425Z,21.80
2022-08-17T01:58:19.241Z,21.78
2022-08-17T02:01:00.055Z,21.73
2022-08-17T02:03:31.263Z,21.71
2022-08-17T02:05:58.121Z,21.71
2022-08-17T02:08:38.984Z,21.72
2022-08-17T02:11:15.810Z,21.75
2022-08-17T02:13:48.937Z,21.80
2022-08-17T02:16:27.105Z,21.87
2022-08-17T02:19:06.233Z,21.91
2022-08-17T02:21:32.890Z,21.93
2022-08-17T02:24:01.825Z,21.92
2022-08-17T02:26:28.415Z,21.86
2022-08-17T02:28:57.483Z,21.81
2022-08-17T02:31:24.046Z,21.82
2022-08-17T02:33:56.664Z,21.81
2022-08-17T02:36:35.587Z,21.75
2022-08-17T02:39:07.450Z,21.79
2022-08-17T02:41:34.073Z,21.78
2022-08-17T02:44:00.748Z,21.76
2022-08-17T02:46:30.498Z,21.75
2022-08-17T02:48:57.515Z,21.77
2022-08-17T02:51:24.387Z,21.78
2022-08-17T02:53:53.215Z,21.61
2022-08-17T02:56:42.249Z,21.68
2022-08-17T02:59:11.504Z,21.65
2022-08-17T03:01:38.550Z,21.69
2022-08-17T03:04:05.203Z,21.53
2022-08-17T03:06:34.226Z,21.62
2022-08-17T03:09:04.084Z,21.57
2022-08-17T03:11:33.308Z,21.55
2022-08-17T03:14:00.274Z,21.53
2022-08-17T03:16:26.803Z,21.50
2022-08-17T03:18:54.770Z,21.47
2022-08-17T03:21:21.711Z,21.45
2022-08-17T03:23:48.436Z,21.32
2022-08-17T03:26:21.247Z,21.30
2022-08-17T03:28:47.838Z,21.28
2022-08-17T03:31:18.386Z,21.26
2022-08-17T03:33:45.128Z,21.22
2022-08-17T03:36:17.520Z,21.17
2022-08-17T03:38:44.048Z,21.17
2022-08-17T03:41:13.578Z,21.14
2022-08-17T03:43:40.299Z,21.14
2022-08-17T03:46:33.961Z,21.06
2022-08-17T03:49:24.045Z,21.07
2022-08-17T03:52:09.510Z,21.02
2022-08-17T03:54:54.601Z,20.97
2022-08-17T03:57:21.359Z,20.97
2022-08-17T03:59:48.118Z,20.94
2022-08-17T04:02:20.951Z,20.93
2022-08-17T04:04:51.092Z,20.88
2022-08-17T04:07:19.758Z,20.88
2022-08-17T04:09:46.492Z,20.82
2022-08-17T04:12:21.251Z,20.84
2022-08-17T04:14:53.562Z,20.75
2022-08-17T04:17:32.078Z,20.74
2022-08-17T04:19:58.635Z,20.68
2022-08-17T04:22:30.997Z,20.64
2022-08-17T04:25:08.285Z,20.66
2022-08-17T04:27:37.241Z,20.50
2022-08-17T04:30:07.428Z,20.52
2022-08-17T04:33:10.039Z,20.50
2022-08-17T04:35:42.793Z,20.47
2022-08-17T04:38:12.712Z,20.38
2022-08-17T04:40:58.177Z,20.40
2022-08-17T04:43:29.760Z,20.41
2022-08-17T04:46:00.237Z,20.43
2022-08-17T04:48:36.353Z,20.42
2022-08-17T04:51:12.349Z,20.26
2022-08-17T04:53:54.037Z,19.98
2022-08-17T04:56:23.248Z,20.13
2022-08-17T04:58:52.732Z,20.07
2022-08-17T05:01:24.116Z,19.99
2022-08-17T05:03:56.309Z,20.12
2022-08-17T05:06:26.520Z,20.14
2022-08-17T05:08:55.776Z,20.14
2022-08-17T05:11:26.203Z,20.22
2022-08-17T05:13:54.785Z,20.23
2022-08-17T05:16:24.906Z,20.07
2022-08-17T05:18:52.514Z,19.94
2022-08-17T05:21:20.854Z,19.87
2022-08-17T05:23:53.258Z,19.96
2022-08-17T05:26:26.886Z,20.04
2022-08-17T05:28:59.489Z,20.13
2022-08-17T05:31:31.352Z,20.15
2022-08-17T05:34:03.511Z,20.20
2022-08-17T05:36:42.780Z,20.22
2022-08-17T05:39:17.234Z,20.19
2022-08-17T05:41:46.614Z,20.04
2022-08-17T05:44:15.328Z,20.05
2022-08-17T05:46:48.116Z,20.23
2022-08-17T05:49:20.032Z,19.99
2022-08-17T05:52:06.035Z,20.00
2022-08-17T05:54:41.378Z,20.25
2022-08-17T05:57:17.774Z,20.36
2022-08-17T06:00:14.547Z,20.45
2022-08-17T06:02:59.746Z,20.48
2022-08-17T06:05:29.533Z,20.48
2022-08-17T06:08:04.968Z,20.58
2022-08-17T06:10:53.389Z,20.56
2022-08-17T06:13:45.000Z,20.49
2022-08-17T06:16:33.859Z,20.69
2022-08-17T06:19:18.439Z,21.12
2022-08-17T06:21:50.579Z,21.53
2022-08-17T06:24:29.358Z,21.50
2022-08-17T06:27:06.726Z,21.79
2022-08-17T06:29:44.082Z,22.08
2022-08-17T06:32:12.981Z,22.26
2022-08-17T06:34:43.722Z,22.33
2022-08-17T06:37:19.230Z,22.47
2022-08-17T06:40:04.406Z,22.33
2022-08-17T06:43:02.513Z,22.47
2022-08-17T06:45:43.498Z,22.48
2022-08-17T06:48:24.906Z,22.34
2022-08-17T06:51:00.804Z,22.18
2022-08-17T06:53:51.686Z,22.26
2022-08-17T06:56:54.092Z,22.36
2022-08-17T06:59:21.737Z,22.41
2022-08-17T07:01:52.150Z,22.82
2022-08-17T07:04:30.137Z,23.00
2022-08-17T07:07:26.823Z,23.27
2022-08-17T07:09:59.023Z,23.36
2022-08-17T07:12:31.469Z,23.65
2022-08-17T07:15:04.499Z,23.82
2022-08-17T07:17:47.523Z,23.69
2022-08-17T07:20:20.618Z,23.49
2022-08-17T07:23:00.029Z,23.76
2022-08-17T07:25:27.563Z,23.71
2022-08-17T07:28:00.308Z,23.78
2022-08-17T07:30:30.701Z,23.88
2022-08-17T07:33:20.132Z,24.18
2022-08-17T07:35:48.513Z,24.47
2022-08-17T07:38:25.485Z,24.40
2022-08-17T07:41:02.649Z,24.09
2022-08-17T07:43:38.093Z,23.60
2022-08-17T07:46:38.508Z,23.89
2022-08-17T07:49:07.666Z,24.15
2022-08-17T07:51:39.603Z,23.98
2022-08-17T07:54:15.250Z,24.25
2022-08-17T07:56:47.783Z,24.95
2022-08-17T07:59:38.820Z,24.97
2022-08-17T08:02:17.146Z,25.04
2022-08-17T08:05:10.119Z,24.78
2022-08-17T08:07:51.879Z,25.12
2022-08-17T08:10:27.928Z,25.08
2022-08-17T08:13:05.777Z,25.45
2022-08-17T08:15:53.582Z,25.85
2022-08-17T08:18:38.587Z,25.99
2022-08-17T08:21:29.176Z,26.22
2022-08-17T08:24:30.169Z,26.07
2022-08-17T08:27:27.240Z,26.33
2022-08-17T08:30:15.869Z,26.55
2022-08-17T08:33:07.595Z,26.70
2022-08-17T08:35:46.177Z,27.10
2022-08-17T08:38:23.499Z,27.17
2022-08-17T08:41:08.503Z,26.58
2022-08-17T08:44:06.007Z,27.11
2022-08-17T08:46:47.102Z,26.94
2022-08-17T08:50:02.750Z,26.98
2022-08-17T08:52:44.347Z,26.94
2022-08-17T08:55:38.699Z,26.92
2022-08-17T08:58:31.759Z,26.88
2022-08-17T09:01:09.182Z,27.19
2022-08-17T09:04:10.939Z,26.96
2022-08-17T09:07:27.950Z,27.47
2022-08-17T09:10:09.030Z,27.33
2022-08-17T09:13:17.670Z,27.31
2022-08-17T09:15:58.959Z,27.31
2022-08-17T09:19:00.039Z,27.49
2022-08-17T09:21:35.061Z,27.80
2022-08-17T09:24:14.137Z,27.92
2022-08-17T09:27:04.676Z,27.70
2022-08-17T09:29:36.436Z,27.73
2022-08-17T09:32:35.252Z,27.51
2022-08-17T09:35:10.472Z,27.83
2022-08-17T09:37:39.989Z,27.50
2022-08-17T09:40:25.763Z,27.72
2022-08-17T09:43:17.195Z,27.75
2022-08-17T09:45:52.000Z,27.72
2022-08-17T09:48:25.113Z,27.81
2022-08-17T09:51:05.942Z,28.12
2022-08-17T09:53:40.776Z,28.08
2022-08-17T09:56:07.411Z,28.62
2022-08-17T09:58:56.445Z,28.67
2022-08-17T10:01:31.531Z,28.46
2022-08-17T10:04:12.423Z,28.99
2022-08-17T10:06:50.423Z,28.39
2022-08-17T10:09:42.199Z,28.61
2022-08-17T10:12:35.616Z,28.68
2022-08-17T10:15:17.561Z,28.72
2022-08-17T10:17:59.421Z,29.12
2022-08-17T10:20:31.198Z,29.16
2022-08-17T10:23:32.252Z,29.18
2022-08-17T10:26:15.007Z,29.08
2022-08-17T10:29:01.701Z,28.98
2022-08-17T10:31:45.599Z,28.76
2022-08-17T10:34:20.579Z,28.82
2022-08-17T10:37:28.453Z,28.77
2022-08-17T10:40:22.332Z,28.56
2022-08-17T10:42:56.917Z,28.10
2022-08-17T10:45:34.766Z,27.80
2022-08-17T10:48:07.689Z,28.49
2022-08-17T10:50:55.419Z,28.28
2022-08-17T10:53:46.053Z,28.45
2022-08-17T10:56:12.565Z,28.56
2022-08-17T10:58:57.460Z,28.22
2022-08-17T11:01:33.156Z,28.39
2022-08-17T11:04:09.952Z,29.02
2022-08-17T11:06:41.922Z,28.56
2022-08-17T11:09:27.543Z,28.76
2022-08-17T11:12:25.586Z,28.58
2022-08-17T11:15:04.106Z,29.31
2022-08-17T11:17:35.268Z,29.35
2022-08-17T11:20:18.988Z,29.55
2022-08-17T11:23:10.176Z,29.07
2022-08-17T11:25:39.598Z,29.85
2022-08-17T11:28:19.413Z,29.60
2022-08-17T11:30:51.012Z,29.41
2022-08-17T11:33:29.791Z,29.38
2022-08-17T11:36:32.093Z,29.83
2022-08-17T11:39:14.303Z,29.55
2022-08-17T11:41:55.173Z,30.03
2022-08-17T11:44:37.799Z,30.04
2022-08-17T11:47:29.272Z,30.14
2022-08-17T11:50:17.083Z,30.18
2022-08-17T11:52:47.752Z,29.54
2022-08-17T11:55:41.761Z,29.12
2022-08-17T11:58:29.533Z,29.20
2022-08-17T12:01:06.645Z,29.82
2022-08-17T12:03:36.950Z,30.13
2022-08-17T12:06:30.642Z,30.23
2022-08-17T12:09:07.987Z,29.72
2022-08-17T12:12:18.094Z,30.14
2022-08-17T12:15:11.035Z,29.32
2022-08-17T12:17:40.167Z,29.00
2022-08-17T12:20:29.812Z,29.29
2022-08-17T12:23:23.376Z,29.91
2022-08-17T12:25:57.131Z,30.33
2022-08-17T12:28:33.486Z,30.37
2022-08-17T12:31:07.871Z,30.59
2022-08-17T12:33:36.781Z,30.17
2022-08-17T12:36:08.533Z,29.75
2022-08-17T12:38:39.870Z,30.08
2022-08-17T12:41:27.197Z,30.53
2022-08-17T12:44:02.811Z,30.11
2022-08-17T12:46:46.762Z,30.00
2022-08-17T12:49:15.211Z,29.85
2022-08-17T12:51:46.768Z,29.55
2022-08-17T12:54:41.094Z,30.05
2022-08-17T12:57:33.390Z,30.59
2022-08-17T13:00:17.552Z,30.65
2022-08-17T13:02:52.089Z,30.44
2022-08-17T13:05:25.974Z,30.65
2022-08-17T13:07:53.307Z,30.72
2022-08-17T13:10:28.641Z,30.32
2022-08-17T13:13:07.555Z,29.80
2022-08-17T13:15:51.043Z,29.71
2022-08-17T13:18:29.832Z,29.35
2022-08-17T13:20:59.141Z,29.74
2022-08-17T13:23:29.199Z,30.00
2022-08-17T13:26:15.045Z,30.11
2022-08-17T13:28:51.719Z,30.23
2022-08-17T13:31:30.353Z,30.56
2022-08-17T13:34:18.708Z,30.76
2022-08-17T13:36:50.663Z,30.88
2022-08-17T13:39:22.612Z,31.05
2022-08-17T13:41:54.017Z,31.11
2022-08-17T13:44:39.342Z,30.92
2022-08-17T13:47:17.098Z,31.09
2022-08-17T13:49:48.761Z,30.71
2022-08-17T13:52:52.250Z,30.93
2022-08-17T13:55:22.329Z,30.77
2022-08-17T13:58:06.552Z,31.13
2022-08-17T14:00:39.489Z,31.14
2022-08-17T14:03:11.132Z,31.04
2022-08-17T14:05:39.455Z,30.96
2022-08-17T14:08:06.611Z,30.88
2022-08-17T14:10:36.366Z,30.91
2022-08-17T14:13:03.652Z,30.60
2022-08-17T14:15:55.173Z,30.46
2022-08-17T14:18:18.996Z,30.54
2022-08-17T14:21:05.667Z,30.13
2022-08-17T14:23:32.948Z,30.00
2022-08-17T14:26:02.033Z,30.18
2022-08-17T14:28:28.727Z,30.14
2022-08-17T14:30:55.542Z,29.77
2022-08-17T14:33:24.841Z,29.76
2022-08-17T14:35:53.543Z,29.85
2022-08-17T14:38:23.429Z,29.87
2022-08-17T14:40:52.759Z,29.92
2022-08-17T14:43:20.423Z,29.96
2022-08-17T14:45:47.191Z,30.04
2022-08-17T14:48:13.757Z,30.05
2022-08-17T14:50:43.777Z,30.17
2022-08-17T14:53:13.545Z,30.02
2022-08-17T14:55:40.534Z,29.92
2022-08-17T14:58:08.836Z,30.03
2022-08-17T15:00:36.025Z,29.89
2022-08-17T15:03:03.143Z,29.75
2022-08-17T15:05:37.471Z,29.66
2022-08-17T15:08:09.644Z,29.52
2022-08-17T15:10:36.529Z,29.34
2022-08-17T15:13:12.968Z,29.44
2022-08-17T15:15:39.508Z,29.42
2022-08-17T15:18:07.945Z,29.43
2022-08-17T15:20:35.649Z,29.36
2022-08-17T15:23:02.344Z,28.97
2022-08-17T15:25:31.951Z,28.54
2022-08-17T15:28:01.930Z,28.30
2022-08-17T15:30:30.336Z,28.03
2022-08-17T15:32:58.810Z,28.10
2022-08-17T15:35:29.141Z,27.54
2022-08-17T15:38:10.695Z,27.29
2022-08-17T15:40:43.434Z,26.80
2022-08-17T15:43:23.327Z,26.82
2022-08-17T15:46:06.128Z,26.08
2022-08-17T15:48:41.804Z,25.38
2022-08-17T15:51:26.006Z,25.32
2022-08-17T15:54:18.881Z,25.03
2022-08-17T15:56:51.104Z,24.48
2022-08-17T15:59:20.220Z,24.10
2022-08-17T16:03:14.042Z,23.89
2022-08-17T16:04:39.150Z,23.97
2022-08-17T16:07:14.570Z,23.38
2022-08-17T16:09:44.232Z,23.34
2022-08-17T16:12:21.650Z,23.32
2022-08-17T16:14:53.318Z,23.09
2022-08-17T16:17:40.177Z,23.15
2022-08-17T16:20:19.552Z,23.24
2022-08-17T16:22:54.145Z,23.37
2022-08-17T16:25:51.993Z,23.36
2022-08-17T16:28:20.649Z,23.62
2022-08-17T16:30:49.649Z,23.45
2022-08-17T16:33:16.976Z,23.59
2022-08-17T16:35:43.920Z,23.50
2022-08-17T16:38:12.764Z,23.40
2022-08-17T16:40:42.585Z,23.50
2022-08-17T16:43:12.205Z,23.51
2022-08-17T16:45:42.265Z,23.36
2022-08-17T16:48:09.679Z,23.34
2022-08-17T16:50:38.878Z,23.35
2022-08-17T16:53:24.123Z,23.30
2022-08-17T16:55:53.586Z,23.39
2022-08-17T16:58:20.398Z,23.46
2022-08-17T17:00:51.815Z,23.47
2022-08-17T17:03:24.871Z,23.65
2022-08-17T17:06:18.739Z,23.68
2022-08-17T17:09:03.276Z,23.67
2022-08-17T17:11:53.353Z,23.65
2022-08-17T17:14:44.770Z,23.66
2022-08-17T17:17:21.128Z,23.45
2022-08-17T17:20:15.494Z,23.56
2022-08-17T17:23:07.673Z,23.38
2022-08-17T17:25:55.182Z,23.39
2022-08-17T17:28:39.075Z,23.48
2022-08-17T17:31:23.840Z,23.50
2022-08-17T17:33:57.478Z,23.49
2022-08-17T17:36:33.377Z,23.53
2022-08-17T17:39:18.083Z,23.52
2022-08-17T17:41:56.205Z,23.57
2022-08-17T17:44:28.760Z,23.57
2022-08-17T17:46:58.378Z,23.60
2022-08-17T17:49:37.061Z,23.56
2022-08-17T17:52:20.288Z,23.51
2022-08-17T17:54:52.839Z,23.54
2022-08-17T17:57:50.100Z,23.49
2022-08-17T18:00:37.231Z,23.49
2022-08-17T18:03:25.358Z,23.54
2022-08-17T18:05:54.915Z,23.68
2022-08-17T18:08:34.833Z,23.71
2022-08-17T18:11:12.411Z,23.71
2022-08-17T18:13:56.860Z,23.72
2022-08-17T18:16:32.007Z,23.75
2022-08-17T18:19:03.225Z,23.81
2022-08-17T18:21:39.573Z,23.82
2022-08-17T18:24:08.686Z,23.66
2022-08-17T18:26:38.046Z,23.66
2022-08-17T18:29:24.277Z,23.64
2022-08-17T18:32:12.628Z,23.50
2022-08-17T18:34:48.516Z,23.34
2022-08-17T18:37:31.851Z,23.38
2022-08-17T18:40:11.331Z,23.16
2022-08-17T18:42:38.739Z,23.09
2022-08-17T18:45:05.804Z,23.10
2022-08-17T18:47:35.123Z,23.03
2022-08-17T18:50:22.554Z,22.90
2022-08-17T18:52:51.527Z,22.66
2022-08-17T18:55:23.071Z,22.39
2022-08-17T18:57:59.094Z,22.24
2022-08-17T19:00:41.868Z,22.09
2022-08-17T19:03:20.432Z,22.02
2022-08-17T19:08:28.582Z,21.45
2022-08-17T19:11:06.519Z,21.10
2022-08-17T19:13:46.147Z,20.66
2022-08-17T19:16:31.878Z,20.20
2022-08-17T19:19:12.197Z,20.12
2022-08-17T19:21:49.323Z,19.94
2022-08-17T19:24:23.586Z,19.74
2022-08-17T19:27:06.848Z,19.65
2022-08-17T19:30:00.793Z,19.63
2022-08-17T19:32:34.752Z,19.50
2022-08-17T19:35:05.310Z,19.54
2022-08-17T19:38:33.589Z,19.29
2022-08-17T19:41:26.409Z,19.26
2022-08-17T19:44:12.359Z,18.94
2022-08-17T19:47:00.909Z,18.81
2022-08-17T19:49:56.924Z,18.81
2022-08-17T19:52:41.772Z,19.01
2022-08-17T19:55:33.294Z,18.94
2022-08-17T19:58:41.660Z,18.94
2022-08-17T20:01:19.587Z,18.74
2022-08-17T20:04:14.410Z,18.63
2022-08-17T20:06:45.659Z,18.64
2022-08-17T20:09:17.976Z,18.62
2022-08-17T20:11:54.866Z,18.63
2022-08-17T20:14:25.465Z,18.64
2022-08-17T20:16:59.297Z,18.68
2022-08-17T20:19:37.613Z,18.67
2022-08-17T20:22:13.404Z,18.63
2022-08-17T20:24:50.541Z,18.67
2022-08-17T20:27:31.789Z,18.59
2022-08-17T20:30:13.212Z,18.58
2022-08-17T20:32:55.525Z,18.48
2022-08-17T20:35:27.066Z,18.48
2022-08-17T20:37:56.374Z,18.62
2022-08-17T20:40:36.198Z,18.64
2022-08-17T20:43:40.531Z,18.62
2022-08-17T20:46:48.362Z,18.68
2022-08-17T20:49:17.252Z,18.70
2022-08-17T20:52:07.888Z,18.69
2022-08-17T20:54:59.941Z,18.71
2022-08-17T20:57:32.637Z,18.68
2022-08-17T21:00:16.504Z,18.66
2022-08-17T21:02:51.303Z,18.69
2022-08-17T21:06:00.117Z,18.66
2022-08-17T21:08:36.031Z,18.75
2022-08-17T21:11:56.662Z,18.69
2022-08-17T21:14:17.540Z,18.74
2022-08-17T21:17:06.866Z,18.74
2022-08-17T21:20:08.114Z,18.76
2022-08-17T21:22:52.579Z,18.75
2022-08-17T21:25:50.515Z,18.74
2022-08-17T21:29:31.046Z,18.77
2022-08-17T21:32:01.582Z,18.65
2022-08-17T21:34:37.313Z,18.67
2022-08-17T21:37:25.034Z,18.66
2022-08-17T21:39:54.630Z,18.72
2022-08-17T21:42:55.649Z,18.43
2022-08-17T21:45:38.863Z,18.11
2022-08-17T21:48:16.444Z,18.28
2022-08-17T21:50:57.212Z,18.20
2022-08-17T21:53:39.009Z,17.89
2022-08-17T21:56:06.962Z,17.80
2022-08-17T21:58:40.263Z,17.91
2022-08-17T22:01:12.990Z,17.92
2022-08-17T22:03:48.233Z,17.92
2022-08-17T22:06:20.920Z,18.10
2022-08-17T22:09:13.808Z,18.18
2022-08-17T22:12:04.734Z,18.15
2022-08-17T22:14:52.506Z,18.17
2022-08-17T22:17:25.178Z,18.00
2022-08-17T22:19:58.123Z,17.93
2022-08-17T22:22:28.885Z,18.07
2022-08-17T22:25:01.594Z,18.21
2022-08-17T22:27:55.456Z,18.20
2022-08-17T22:30:30.252Z,18.14
2022-08-17T22:32:58.691Z,18.14
2022-08-17T22:35:25.195Z,18.19
2022-08-17T22:37:52.071Z,18.27
2022-08-17T22:40:31.050Z,18.10
2022-08-17T22:43:00.698Z,18.17
2022-08-17T22:45:30.414Z,18.23
2022-08-17T22:48:02.111Z,18.09
2022-08-17T22:50:31.629Z,18.12
2022-08-17T22:53:22.686Z,17.92
2022-08-17T22:56:14.476Z,17.79
2022-08-17T22:59:10.493Z,17.80
2022-08-17T23:01:41.610Z,17.89
2022-08-17T23:04:30.159Z,17.93
2022-08-17T23:06:56.795Z,18.02
2022-08-17T23:09:25.841Z,17.97
2022-08-17T23:11:59.634Z,18.01
2022-08-17T23:14:31.644Z,18.11
2022-08-17T23:17:04.516Z,18.17
2022-08-17T23:19:33.561Z,18.19
2022-08-17T23:22:04.212Z,18.20
2022-08-17T23:24:35.609Z,18.13
2022-08-17T23:27:07.375Z,18.19
2022-08-17T23:29:39.365Z,18.18
2022-08-17T23:32:11.036Z,18.11
2022-08-17T23:34:43.991Z,18.11
2022-08-17T23:37:14.300Z,18.07
2022-08-17T23:39:40.979Z,18.09
2022-08-17T23:42:15.354Z,18.03
2022-08-17T23:44:44.842Z,18.06
2022-08-17T23:47:11.491Z,18.06
2022-08-17T23:49:41.377Z,17.98
2022-08-17T23:52:12.527Z,17.96
2022-08-17T23:54:48.277Z,17.91
2022-08-17T23:57:19.190Z,17.92
2022-08-17T23:59:48.836Z,17.92
